createdAt,value
2022-10-08T00:03:57.049Z,13.59
2022-10-08T00:09:03.380Z,13.39
2022-10-08T00:14:07.818Z,13.20
2022-10-08T00:19:13.684Z,13.02
2022-10-08T00:24:18.123Z,12.85
2022-10-08T00:29:23.090Z,12.70
2022-10-08T00:34:30.192Z,12.54
2022-10-08T00:39:34.800Z,12.39
2022-10-08T00:44:47.099Z,12.29
2022-10-08T00:49:51.949Z,12.16
2022-10-08T00:54:55.317Z,12.04
2022-10-08T00:59:58.654Z,11.89
2022-10-08T01:05:05.077Z,11.79
2022-10-08T01:10:08.693Z,11.74
2022-10-08T01:15:23.301Z,11.72
2022-10-08T01:20:46.623Z,11.77
2022-10-08T01:25:56.187Z,11.84
2022-10-08T01:31:15.555Z,11.92
2022-10-08T01:36:20.193Z,12.00
2022-10-08T01:41:25.965Z,12.05
2022-10-08T01:46:30.468Z,12.06
2022-10-08T01:51:55.082Z,12.05
2022-10-08T01:57:01.001Z,12.05
2022-10-08T02:02:15.523Z,12.07
2022-10-08T02:07:21.596Z,12.08
2022-10-08T02:12:24.952Z,12.06
2022-10-08T02:17:41.030Z,12.00
2022-10-08T02:22:47.160Z,11.93
2022-10-08T02:28:35.996Z,11.90
2022-10-08T02:34:08.473Z,11.85
2022-10-08T02:39:13.325Z,11.82
2022-10-08T02:44:22.581Z,11.80
2022-10-08T02:49:30.878Z,11.86
2022-10-08T02:54:37.553Z,11.91
2022-10-08T02:59:41.081Z,11.95
2022-10-08T03:04:48.660Z,11.97
2022-10-08T03:09:52.538Z,12.00
2022-10-08T03:14:55.834Z,12.02
2022-10-08T03:20:03.389Z,12.03
2022-10-08T03:25:06.796Z,12.09
2022-10-08T03:30:11.146Z,12.13
2022-10-08T03:35:17.246Z,12.17
2022-10-08T03:40:21.827Z,12.18
2022-10-08T03:45:24.929Z,12.17
2022-10-08T03:50:28.115Z,12.12
2022-10-08T03:55:31.185Z,12.06
2022-10-08T04:00:34.317Z,12.00
2022-10-08T04:05:37.472Z,11.94
2022-10-08T04:10:40.695Z,11.93
2022-10-08T04:15:45.030Z,11.95
2022-10-08T04:20:56.363Z,11.98
2022-10-08T04:26:04.439Z,12.03
2022-10-08T04:31:12.628Z,12.05
2022-10-08T04:36:21.819Z,12.11
2022-10-08T04:41:28.438Z,12.18
2022-10-08T04:46:32.919Z,12.26
2022-10-08T04:51:36.301Z,12.35
2022-10-08T04:56:39.522Z,12.47
2022-10-08T05:01:42.760Z,12.57
2022-10-08T05:06:45.913Z,12.70
2022-10-08T05:11:51.560Z,12.78
2022-10-08T05:16:54.957Z,12.83
2022-10-08T05:21:58.135Z,12.83
2022-10-08T05:27:01.309Z,12.81
2022-10-08T05:32:06.491Z,12.84
2022-10-08T05:37:09.669Z,12.89
2022-10-08T05:42:13.593Z,12.94
2022-10-08T05:47:16.674Z,13.02
2022-10-08T05:52:19.937Z,13.12
2022-10-08T05:57:23.172Z,13.29
2022-10-08T06:02:26.380Z,13.52
2022-10-08T06:07:29.645Z,13.80
2022-10-08T06:12:32.878Z,14.05
2022-10-08T06:17:36.565Z,14.27
2022-10-08T06:22:43.457Z,14.50
2022-10-08T06:27:51.891Z,14.77
2022-10-08T06:32:55.314Z,14.99
2022-10-08T06:38:03.072Z,15.17
2022-10-08T06:43:17.663Z,15.32
2022-10-08T06:48:22.646Z,15.56
2022-10-08T06:53:28.074Z,15.87
2022-10-08T06:58:38.630Z,16.22
2022-10-08T07:03:42.665Z,16.58
2022-10-08T07:09:03.237Z,16.92
2022-10-08T07:14:14.065Z,17.23
2022-10-08T07:19:18.979Z,17.50
2022-10-08T07:24:26.983Z,17.82
2022-10-08T07:29:49.173Z,18.09
2022-10-08T07:35:00.180Z,18.27
2022-10-08T07:40:14.102Z,18.33
2022-10-08T07:45:30.040Z,18.55
2022-10-08T07:50:38.738Z,18.79
2022-10-08T07:55:44.941Z,18.98
2022-10-08T08:00:53.345Z,19.22
2022-10-08T08:06:45.125Z,19.47
2022-10-08T08:11:55.468Z,19.64
2022-10-08T08:17:39.828Z,19.88
2022-10-08T08:23:12.266Z,20.20
2022-10-08T08:28:40.415Z,20.33
2022-10-08T08:34:15.733Z,20.49
2022-10-08T08:39:52.061Z,20.47
2022-10-08T08:45:47.808Z,19.93
2022-10-08T08:51:58.041Z,19.37
2022-10-08T08:57:54.588Z,19.15
2022-10-08T09:03:36.032Z,19.25
2022-10-08T09:08:52.410Z,19.35
2022-10-08T09:14:18.941Z,19.46
2022-10-08T09:19:39.814Z,19.66
2022-10-08T09:24:43.286Z,19.90
2022-10-08T09:29:49.058Z,20.03
2022-10-08T09:34:58.261Z,20.11
2022-10-08T09:40:11.141Z,19.96
2022-10-08T09:45:41.058Z,19.78
2022-10-08T09:51:14.654Z,19.62
2022-10-08T09:56:29.111Z,19.65
2022-10-08T10:01:45.359Z,19.97
2022-10-08T10:07:05.974Z,20.08
2022-10-08T10:12:32.900Z,20.18
2022-10-08T10:17:41.768Z,20.26
2022-10-08T10:22:51.018Z,20.34
2022-10-08T10:28:28.085Z,20.30
2022-10-08T10:33:59.260Z,20.52
2022-10-08T10:39:36.262Z,20.67
2022-10-08T10:44:53.884Z,20.37
2022-10-08T10:50:34.808Z,20.03
2022-10-08T10:56:29.212Z,19.64
2022-10-08T11:02:04.098Z,19.32
2022-10-08T11:07:31.205Z,19.20
2022-10-08T11:13:06.114Z,19.11
2022-10-08T11:18:40.489Z,18.95
2022-10-08T11:24:31.606Z,18.86
2022-10-08T11:29:58.163Z,18.84
2022-10-08T11:35:26.682Z,18.88
2022-10-08T11:40:39.669Z,18.99
2022-10-08T11:45:54.935Z,19.00
2022-10-08T11:51:45.840Z,18.88
2022-10-08T12:03:33.773Z,18.81
2022-10-08T12:08:59.746Z,18.67
2022-10-08T12:14:19.767Z,18.49
2022-10-08T12:19:35.821Z,18.41
2022-10-08T12:25:05.445Z,18.34
2022-10-08T12:30:29.598Z,18.35
2022-10-08T12:36:05.580Z,18.39
2022-10-08T12:41:34.681Z,18.36
2022-10-08T12:52:20.824Z,18.45
2022-10-08T12:57:35.123Z,18.50
2022-10-08T13:03:20.709Z,18.45
2022-10-08T13:08:40.383Z,18.42
2022-10-08T13:13:52.306Z,18.34
2022-10-08T13:19:00.569Z,18.21
2022-10-08T13:24:13.495Z,18.18
2022-10-08T13:29:24.895Z,18.18
2022-10-08T13:34:43.792Z,18.00
2022-10-08T13:40:04.251Z,17.84
2022-10-08T13:45:30.203Z,17.66
2022-10-08T13:51:00.354Z,17.43
2022-10-08T13:56:16.681Z,17.28
2022-10-08T14:01:25.863Z,17.16
2022-10-08T14:06:55.995Z,17.07
2022-10-08T14:12:08.330Z,16.93
2022-10-08T14:17:45.329Z,16.85
2022-10-08T14:23:00.853Z,16.85
2022-10-08T14:28:08.769Z,16.84
2022-10-08T14:33:20.543Z,16.82
2022-10-08T14:38:49.267Z,16.81
2022-10-08T14:43:55.757Z,16.82
2022-10-08T14:49:11.215Z,16.85
2022-10-08T14:54:18.472Z,16.86
2022-10-08T14:59:28.041Z,16.83
2022-10-08T15:04:37.214Z,16.76
2022-10-08T15:09:42.145Z,16.72
2022-10-08T15:14:55.161Z,16.63
2022-10-08T15:20:07.797Z,16.55
2022-10-08T15:25:14.333Z,16.42
2022-10-08T15:30:18.295Z,16.29
2022-10-08T15:35:26.756Z,16.16
2022-10-08T15:40:38.861Z,16.00
2022-10-08T15:45:48.107Z,15.84
2022-10-08T15:51:03.875Z,15.74
2022-10-08T15:56:12.560Z,15.62
2022-10-08T16:01:32.085Z,15.47
2022-10-08T16:06:36.781Z,15.38
2022-10-08T16:11:45.063Z,15.32
2022-10-08T16:16:50.504Z,15.25
2022-10-08T16:21:56.397Z,15.18
2022-10-08T16:26:59.588Z,15.06
2022-10-08T16:32:03.955Z,14.94
2022-10-08T16:37:17.350Z,14.85
2022-10-08T16:42:27.275Z,14.75
2022-10-08T16:47:30.533Z,14.59
2022-10-08T16:52:34.407Z,14.41
2022-10-08T16:57:39.326Z,14.23
2022-10-08T17:02:42.442Z,14.02
2022-10-08T17:07:45.703Z,13.87
2022-10-08T17:12:49.613Z,13.71
2022-10-08T17:18:08.489Z,13.57
2022-10-08T17:23:21.184Z,13.43
2022-10-08T17:28:32.017Z,13.29
2022-10-08T17:33:36.305Z,13.17
2022-10-08T17:38:43.823Z,13.06
2022-10-08T17:43:58.409Z,12.94
2022-10-08T17:54:43.932Z,12.70
2022-10-08T18:00:15.442Z,12.62
2022-10-08T18:05:47.561Z,12.47
2022-10-08T18:11:17.885Z,12.32
2022-10-08T18:16:48.422Z,12.19
2022-10-08T18:22:09.879Z,12.00
2022-10-08T18:27:48.081Z,11.86
2022-10-08T18:33:07.040Z,11.99
2022-10-08T18:38:34.270Z,12.24
2022-10-08T18:44:15.627Z,12.36
2022-10-08T18:49:41.050Z,12.22
2022-10-08T18:55:35.385Z,12.05
2022-10-08T19:01:15.809Z,11.87
2022-10-08T19:07:03.463Z,11.72
2022-10-08T19:12:30.902Z,11.56
2022-10-08T19:18:25.897Z,11.38
2022-10-08T19:24:08.259Z,11.19
2022-10-08T19:30:09.879Z,11.04
2022-10-08T19:35:46.827Z,10.97
2022-10-08T19:41:20.986Z,10.95
2022-10-08T19:46:54.357Z,10.95
2022-10-08T19:52:03.491Z,11.07
2022-10-08T19:57:07.998Z,11.20
2022-10-08T20:02:11.448Z,11.39
2022-10-08T20:07:14.692Z,11.60
2022-10-08T20:12:17.867Z,11.72
2022-10-08T20:17:21.748Z,11.78
2022-10-08T20:22:28.220Z,11.76
2022-10-08T20:27:35.472Z,11.74
2022-10-08T20:32:56.347Z,11.68
2022-10-08T20:38:11.913Z,11.58
2022-10-08T20:43:15.150Z,11.44
2022-10-08T20:48:20.307Z,11.28
2022-10-08T20:53:30.272Z,11.14
2022-10-08T20:58:34.312Z,11.03
2022-10-08T21:03:38.471Z,10.94
2022-10-08T21:08:47.161Z,10.80
2022-10-08T21:13:51.062Z,10.68
2022-10-08T21:18:59.738Z,10.53
2022-10-08T21:24:03.235Z,10.38
2022-10-08T21:29:21.090Z,10.18
2022-10-08T21:34:34.183Z,9.99
2022-10-08T21:39:37.505Z,9.85
2022-10-08T21:44:40.779Z,9.73
2022-10-08T21:49:43.995Z,9.63
2022-10-08T21:54:48.094Z,9.54
2022-10-08T21:59:51.396Z,9.37
2022-10-08T22:05:00.969Z,9.22
2022-10-08T22:10:04.699Z,9.14
2022-10-08T22:15:15.635Z,9.11
2022-10-08T22:20:26.368Z,9.00
2022-10-08T22:25:42.180Z,8.92
2022-10-08T22:31:16.305Z,8.80
2022-10-08T22:36:33.640Z,8.66
2022-10-08T22:41:38.002Z,8.59
2022-10-08T22:46:41.235Z,8.55
2022-10-08T22:51:48.124Z,8.41
2022-10-08T22:56:51.544Z,8.40
2022-10-08T23:01:54.767Z,8.36
2022-10-08T23:06:59.066Z,8.45
2022-10-08T23:12:03.664Z,8.55
2022-10-08T23:17:07.105Z,8.60
2022-10-08T23:22:10.476Z,8.69
2022-10-08T23:27:13.887Z,8.81
2022-10-08T23:32:17.115Z,8.90
2022-10-08T23:37:21.046Z,8.97
2022-10-08T23:42:24.342Z,8.96
2022-10-08T23:47:27.499Z,8.85
2022-10-08T23:52:30.759Z,8.74
2022-10-08T23:57:34.016Z,8.63
